Time,TemperatureF,DewpointF,PressureIn,WindDirection,WindDirectionDegrees,WindSpeedMPH,WindSpeedGustMPH,Humidity,HourlyPrecipIn,Conditions,Clouds,dailyrainin,SoftwareType,DateUTC
2013-01-13 00:01:00,43.3,32.3,29.89,North,0,0.0,0.0,65,0.00,,---,0.00,VWS V14.01,2013-01-13 05:01:00,
2013-01-13 00:02:00,43.3,32.3,29.89,North,0,0.0,0.0,65,0.00,,---,0.00,VWS V14.01,2013-01-13 05:02:00,
2013-01-13 00:03:00,43.3,32.3,29.89,North,0,0.0,0.0,65,0.00,,---,0.00,VWS V14.01,2013-01-13 05:03:00,
2013-01-13 00:04:00,43.3,32.3,29.89,North,0,0.0,0.0,65,0.00,,---,0.00,VWS V14.01,2013-01-13 05:04:00,
2013-01-13 00:09:00,42.9,32.7,29.89,WNW,292,0.0,0.0,67,0.00,,---,0.00,VWS V14.01,2013-01-13 05:09:00,
2013-01-13 00:14:00,42.6,32.4,29.91,WSW,248,0.0,0.0,67,0.00,,---,0.00,VWS V14.01,2013-01-13 05:14:00,
2013-01-13 00:19:00,42.4,32.6,29.90,NW,315,0.0,0.0,68,0.00,,---,0.00,VWS V14.01,2013-01-13 05:19:00,
2013-01-13 00:24:00,42.0,32.6,29.90,NW,315,0.0,0.0,69,0.00,,---,0.00,VWS V14.01,2013-01-13 05:24:00,
2013-01-13 00:29:00,41.9,32.8,29.90,NNW,338,0.0,0.0,70,0.00,,---,0.00,VWS V14.01,2013-01-13 05:29:00,
2013-01-13 00:34:00,41.5,32.8,29.90,NNW,338,0.0,0.0,71,0.00,,---,0.00,VWS V14.01,2013-01-13 05:34:00,
2013-01-13 00:39:00,41.1,32.8,29.90,WNW,292,0.0,0.0,72,0.00,,---,0.00,VWS V14.01,2013-01-13 05:39:00,
2013-01-13 00:44:00,40.8,32.8,29.90,NW,315,0.0,0.0,73,0.00,,---,0.00,VWS V14.01,2013-01-13 05:44:00,
2013-01-13 00:49:00,40.8,32.8,29.89,NNE,22,0.0,0.0,73,0.00,,---,0.00,VWS V14.01,2013-01-13 05:49:00,
2013-01-13 00:54:00,40.6,32.6,29.89,NE,45,0.0,0.0,73,0.02,,---,0.02,VWS V14.01,2013-01-13 05:54:00,
2013-01-13 00:59:00,40.6,33.0,29.88,North,0,0.0,0.0,74,0.02,,---,0.02,VWS V14.01,2013-01-13 05:59:00,
2013-01-13 01:04:00,40.2,32.6,29.87,NNE,22,0.0,0.0,74,0.02,,---,0.02,VWS V14.01,2013-01-13 06:04:00,
2013-01-13 01:09:00,40.1,32.5,29.87,NNE,22,0.0,0.0,74,0.02,,---,0.02,VWS V14.01,2013-01-13 06:09:00,
2013-01-13 01:14:00,39.9,32.3,29.86,NNE,22,0.0,0.0,74,0.04,,---,0.04,VWS V14.01,2013-01-13 06:14:00,
2013-01-13 01:19:00,39.9,32.6,29.86,NNE,22,0.0,0.0,75,0.04,,---,0.04,VWS V14.01,2013-01-13 06:19:00,
2013-01-13 01:24:00,39.7,32.4,29.85,NE,45,0.0,0.0,75,0.06,,---,0.06,VWS V14.01,2013-01-13 06:24:00,
2013-01-13 01:29:00,39.5,32.6,29.85,NE,45,0.0,0.0,76,0.08,,---,0.08,VWS V14.01,2013-01-13 06:29:00,
2013-01-13 01:34:00,39.3,32.4,29.85,NE,45,1.7,1.7,76,0.08,,---,0.08,VWS V14.01,2013-01-13 06:34:00,
2013-01-13 01:39:00,39.0,32.4,29.84,ENE,68,0.0,0.0,77,0.08,,---,0.08,VWS V14.01,2013-01-13 06:39:00,
2013-01-13 01:44:00,39.0,32.4,29.84,NE,45,0.0,0.0,77,0.08,,---,0.08,VWS V14.01,2013-01-13 06:44:00,
2013-01-13 01:49:00,38.8,32.2,29.83,NNE,22,0.0,0.0,77,0.08,,---,0.08,VWS V14.01,2013-01-13 06:49:00,
2013-01-13 01:54:00,38.6,32.3,29.83,NE,45,0.0,0.0,78,0.06,,---,0.08,VWS V14.01,2013-01-13 06:54:00,
2013-01-13 01:59:00,38.4,32.2,29.82,NE,45,0.0,0.0,78,0.06,,---,0.08,VWS V14.01,2013-01-13 06:59:00,
2013-01-13 02:05:00,38.4,32.2,29.82,ENE,68,0.0,0.0,78,0.06,,---,0.08,VWS V14.01,2013-01-13 07:05:00,
2013-01-13 02:10:00,38.4,32.5,29.82,NE,45,0.0,0.0,79,0.06,,---,0.08,VWS V14.01,2013-01-13 07:10:00,
2013-01-13 02:15:00,38.3,32.4,29.82,North,0,7.1,7.1,79,0.04,,---,0.08,VWS V14.01,2013-01-13 07:15:00,
2013-01-13 02:20:00,38.1,32.2,29.82,NNW,338,0.0,0.0,79,0.04,,---,0.08,VWS V14.01,2013-01-13 07:20:00,
2013-01-13 02:25:00,38.1,32.5,29.82,NNE,22,2.0,2.0,80,0.02,,---,0.08,VWS V14.01,2013-01-13 07:25:00,
2013-01-13 02:30:00,38.1,32.5,29.82,NNE,22,7.8,7.8,80,0.00,,---,0.08,VWS V14.01,2013-01-13 07:30:00,
2013-01-13 02:35:00,37.9,32.3,29.82,NNE,22,0.0,0.0,80,0.00,,---,0.08,VWS V14.01,2013-01-13 07:35:00,
2013-01-13 02:40:00,37.9,32.3,29.82,NE,45,0.0,4.0,80,0.00,,---,0.08,VWS V14.01,2013-01-13 07:40:00,
2013-01-13 02:45:00,37.9,32.6,29.82,NNE,22,2.4,2.4,81,0.00,,---,0.08,VWS V14.01,2013-01-13 07:45:00,
2013-01-13 02:50:00,37.9,32.6,29.83,NNE,22,0.0,0.0,81,0.00,,---,0.08,VWS V14.01,2013-01-13 07:50:00,
2013-01-13 02:55:00,37.9,32.6,29.83,NE,45,0.8,0.8,81,0.00,,---,0.08,VWS V14.01,2013-01-13 07:55:00,
2013-01-13 03:00:00,37.9,32.6,29.83,NE,45,0.0,0.0,81,0.00,,---,0.08,VWS V14.01,2013-01-13 08:00:00,
2013-01-13 03:05:00,37.9,32.6,29.83,NNE,22,1.1,1.1,81,0.00,,---,0.08,VWS V14.01,2013-01-13 08:05:00,
2013-01-13 03:10:00,37.9,32.6,29.84,NNE,22,0.0,0.0,81,0.00,,---,0.08,VWS V14.01,2013-01-13 08:10:00,
2013-01-13 03:15:00,37.9,32.6,29.84,NE,45,0.0,0.0,81,0.00,,---,0.08,VWS V14.01,2013-01-13 08:15:00,
2013-01-13 03:20:00,37.9,32.9,29.84,NE,45,0.0,0.0,82,0.00,,---,0.08,VWS V14.01,2013-01-13 08:20:00,
2013-01-13 03:25:00,37.9,32.9,29.84,NE,45,0.0,0.0,82,0.00,,---,0.08,VWS V14.01,2013-01-13 08:25:00,
2013-01-13 03:30:00,37.9,32.9,29.83,North,0,0.0,0.0,82,0.00,,---,0.08,VWS V14.01,2013-01-13 08:30:00,
2013-01-13 03:35:00,37.9,32.9,29.83,NE,45,0.0,0.0,82,0.00,,---,0.08,VWS V14.01,2013-01-13 08:35:00,
2013-01-13 03:40:00,37.9,32.9,29.83,NE,45,0.0,0.0,82,0.00,,---,0.08,VWS V14.01,2013-01-13 08:40:00,
2013-01-13 03:45:00,37.9,32.9,29.83,NNE,22,0.0,1.1,82,0.00,,---,0.08,VWS V14.01,2013-01-13 08:45:00,
2013-01-13 03:50:00,37.9,32.9,29.83,North,0,0.0,0.0,82,0.00,,---,0.08,VWS V14.01,2013-01-13 08:50:00,
2013-01-13 03:55:00,37.7,32.7,29.84,NW,315,2.9,2.9,82,0.00,,---,0.08,VWS V14.01,2013-01-13 08:55:00,
2013-01-13 04:00:00,37.5,32.8,29.83,NE,45,0.0,0.0,83,0.00,,---,0.08,VWS V14.01,2013-01-13 09:00:00,
2013-01-13 04:05:00,37.5,32.8,29.83,NNE,22,0.0,0.0,83,0.00,,---,0.08,VWS V14.01,2013-01-13 09:05:00,
2013-01-13 04:10:00,37.4,32.7,29.83,NE,45,0.0,0.0,83,0.00,,---,0.08,VWS V14.01,2013-01-13 09:10:00,
2013-01-13 04:15:00,37.4,32.7,29.82,NNE,22,0.0,2.2,83,0.00,,---,0.08,VWS V14.01,2013-01-13 09:15:00,
2013-01-13 04:20:00,37.2,32.5,29.83,ENE,68,4.2,4.2,83,0.00,,---,0.08,VWS V14.01,2013-01-13 09:20:00,
2013-01-13 04:25:00,37.2,32.5,29.83,NE,45,6.2,6.2,83,0.00,,---,0.08,VWS V14.01,2013-01-13 09:25:00,
2013-01-13 04:30:00,37.2,32.8,29.83,NE,45,0.0,5.8,84,0.00,,---,0.08,VWS V14.01,2013-01-13 09:30:00,
2013-01-13 04:35:00,37.0,32.6,29.82,NE,45,5.1,5.1,84,0.00,,---,0.08,VWS V14.01,2013-01-13 09:35:00,
2013-01-13 04:40:00,37.0,32.6,29.82,ENE,68,0.0,1.7,84,0.00,,---,0.08,VWS V14.01,2013-01-13 09:40:00,
2013-01-13 04:45:00,36.8,32.4,29.83,North,0,0.0,2.6,84,0.00,,---,0.08,VWS V14.01,2013-01-13 09:45:00,
2013-01-13 04:50:00,36.6,32.2,29.82,NNE,22,6.7,6.7,84,0.00,,---,0.08,VWS V14.01,2013-01-13 09:50:00,
2013-01-13 04:55:00,36.6,32.2,29.82,NE,45,0.0,1.1,84,0.00,,---,0.08,VWS V14.01,2013-01-13 09:55:00,
2013-01-13 05:00:00,36.6,32.2,29.82,NNW,338,2.9,4.9,84,0.00,,---,0.08,VWS V14.01,2013-01-13 10:00:00,
2013-01-13 05:05:00,36.6,32.2,29.82,NNW,338,2.9,2.9,84,0.00,,---,0.08,VWS V14.01,2013-01-13 10:05:00,
2013-01-13 05:10:00,36.5,32.4,29.82,North,0,1.7,1.7,85,0.00,,---,0.08,VWS V14.01,2013-01-13 10:10:00,
2013-01-13 05:15:00,36.5,32.4,29.83,North,0,0.0,3.3,85,0.00,,---,0.08,VWS V14.01,2013-01-13 10:15:00,
2013-01-13 05:20:00,36.3,32.2,29.82,North,0,4.0,4.0,85,0.00,,---,0.08,VWS V14.01,2013-01-13 10:20:00,
2013-01-13 05:25:00,36.3,32.2,29.83,NNE,22,0.0,0.4,85,0.00,,---,0.08,VWS V14.01,2013-01-13 10:25:00,
2013-01-13 05:30:00,36.3,32.2,29.83,NNE,22,0.0,0.0,85,0.00,,---,0.08,VWS V14.01,2013-01-13 10:30:00,
2013-01-13 05:35:00,36.3,32.2,29.82,NE,45,1.1,1.1,85,0.00,,---,0.08,VWS V14.01,2013-01-13 10:35:00,
2013-01-13 05:40:00,36.3,32.2,29.82,ENE,68,2.2,2.2,85,0.00,,---,0.08,VWS V14.01,2013-01-13 10:40:00,
2013-01-13 05:45:00,36.3,32.2,29.82,NE,45,0.0,0.0,85,0.00,,---,0.08,VWS V14.01,2013-01-13 10:45:00,
2013-01-13 05:50:00,36.3,32.2,29.82,NE,45,0.0,0.0,85,0.00,,---,0.08,VWS V14.01,2013-01-13 10:50:00,
2013-01-13 05:55:00,36.3,32.2,29.82,NE,45,0.8,0.8,85,0.00,,---,0.08,VWS V14.01,2013-01-13 10:55:00,
2013-01-13 06:00:00,36.3,32.2,29.82,ENE,68,0.0,0.0,85,0.00,,---,0.08,VWS V14.01,2013-01-13 11:00:00,
2013-01-13 06:05:00,36.3,32.2,29.81,ENE,68,0.0,0.0,85,0.00,,---,0.08,VWS V14.01,2013-01-13 11:05:00,
2013-01-13 06:10:00,36.3,32.2,29.81,NE,45,0.0,0.0,85,0.00,,---,0.08,VWS V14.01,2013-01-13 11:10:00,
2013-01-13 06:15:00,36.3,32.2,29.82,NE,45,0.0,1.7,85,0.00,,---,0.08,VWS V14.01,2013-01-13 11:15:00,
2013-01-13 06:20:00,36.3,32.2,29.82,ENE,68,0.0,0.0,85,0.00,,---,0.08,VWS V14.01,2013-01-13 11:20:00,
2013-01-13 06:25:00,36.3,32.5,29.81,East,90,0.0,0.0,86,0.00,,---,0.08,VWS V14.01,2013-01-13 11:25:00,
2013-01-13 06:30:00,36.3,32.5,29.80,NE,45,0.0,0.0,86,0.00,,---,0.08,VWS V14.01,2013-01-13 11:30:00,
2013-01-13 06:35:00,36.3,32.5,29.80,ENE,68,0.0,0.0,86,0.00,,---,0.08,VWS V14.01,2013-01-13 11:35:00,
2013-01-13 06:40:00,36.3,32.5,29.79,ENE,68,0.0,0.0,86,0.00,,---,0.08,VWS V14.01,2013-01-13 11:40:00,
2013-01-13 06:45:00,36.3,32.5,29.78,ENE,68,0.0,0.0,86,0.00,,---,0.08,VWS V14.01,2013-01-13 11:45:00,
2013-01-13 06:50:00,36.3,32.5,29.79,ENE,68,0.0,0.0,86,0.00,,---,0.08,VWS V14.01,2013-01-13 11:50:00,
2013-01-13 06:55:00,36.3,32.5,29.78,ENE,68,0.0,0.0,86,0.00,,---,0.08,VWS V14.01,2013-01-13 11:55:00,
2013-01-13 07:00:00,36.3,32.5,29.81,NNE,22,0.0,0.0,86,0.00,,---,0.08,VWS V14.01,2013-01-13 12:00:00,
2013-01-13 07:05:00,36.3,32.5,29.81,NNE,22,0.0,0.0,86,0.00,,---,0.08,VWS V14.01,2013-01-13 12:05:00,
2013-01-13 07:10:00,36.3,32.5,29.82,NNW,338,0.0,0.0,86,0.00,,---,0.08,VWS V14.01,2013-01-13 12:10:00,
2013-01-13 07:15:00,36.3,32.5,29.81,NE,45,0.0,0.0,86,0.00,,---,0.08,VWS V14.01,2013-01-13 12:15:00,
2013-01-13 07:20:00,36.3,32.5,29.80,NNW,338,0.0,0.0,86,0.00,,---,0.08,VWS V14.01,2013-01-13 12:20:00,
2013-01-13 07:25:00,36.3,32.5,29.80,ENE,68,0.0,0.0,86,0.00,,---,0.08,VWS V14.01,2013-01-13 12:25:00,
2013-01-13 07:30:00,36.3,32.5,29.81,West,270,0.0,0.0,86,0.00,,---,0.08,VWS V14.01,2013-01-13 12:30:00,
2013-01-13 07:35:00,36.5,32.7,29.81,West,270,0.0,0.0,86,0.00,,---,0.08,VWS V14.01,2013-01-13 12:35:00,
2013-01-13 07:40:00,36.5,32.7,29.81,NE,45,0.0,0.0,86,0.00,,---,0.08,VWS V14.01,2013-01-13 12:40:00,
2013-01-13 07:45:00,36.5,32.7,29.80,NE,45,0.0,0.0,86,0.00,,---,0.08,VWS V14.01,2013-01-13 12:45:00,
2013-01-13 07:50:00,36.6,32.8,29.80,NE,45,0.0,0.0,86,0.00,,---,0.08,VWS V14.01,2013-01-13 12:50:00,
2013-01-13 07:55:00,36.6,32.8,29.80,ENE,68,0.0,0.0,86,0.00,,---,0.08,VWS V14.01,2013-01-13 12:55:00,
2013-01-13 08:00:00,36.6,32.8,29.81,NNE,22,0.0,0.0,86,0.00,,---,0.08,VWS V14.01,2013-01-13 13:00:00,
2013-01-13 08:05:00,36.6,32.8,29.81,ENE,68,0.0,0.0,86,0.00,,---,0.08,VWS V14.01,2013-01-13 13:05:00,
2013-01-13 08:10:00,36.6,32.8,29.80,ENE,68,0.0,0.0,86,0.00,,---,0.08,VWS V14.01,2013-01-13 13:10:00,
2013-01-13 08:15:00,36.6,32.8,29.81,ENE,68,0.0,0.0,86,0.00,,---,0.08,VWS V14.01,2013-01-13 13:15:00,
2013-01-13 08:20:00,36.8,33.0,29.81,ENE,68,0.0,0.0,86,0.00,,---,0.08,VWS V14.01,2013-01-13 13:20:00,
2013-01-13 08:25:00,37.0,33.2,29.81,ENE,68,0.0,0.0,86,0.00,,---,0.08,VWS V14.01,2013-01-13 13:25:00,
2013-01-13 08:30:00,37.0,33.2,29.81,ENE,68,0.0,0.0,86,0.00,,---,0.08,VWS V14.01,2013-01-13 13:30:00,
2013-01-13 08:35:00,37.0,33.2,29.82,SSE,158,0.0,0.0,86,0.00,,---,0.08,VWS V14.01,2013-01-13 13:35:00,
2013-01-13 08:40:00,37.0,33.2,29.83,SSE,158,0.0,0.0,86,0.00,,---,0.08,VWS V14.01,2013-01-13 13:40:00,
2013-01-13 08:45:00,37.0,33.2,29.83,West,270,0.0,0.0,86,0.00,,---,0.08,VWS V14.01,2013-01-13 13:45:00,
2013-01-13 08:50:00,37.0,33.2,29.83,West,270,0.0,0.0,86,0.00,,---,0.08,VWS V14.01,2013-01-13 13:50:00,
2013-01-13 08:55:00,37.0,33.2,29.83,West,270,0.0,0.0,86,0.00,,---,0.08,VWS V14.01,2013-01-13 13:55:00,
2013-01-13 09:00:00,37.0,33.2,29.84,West,270,0.0,0.0,86,0.00,,---,0.08,VWS V14.01,2013-01-13 14:00:00,
2013-01-13 09:05:00,37.0,33.2,29.84,WSW,248,0.0,0.0,86,0.00,,---,0.08,VWS V14.01,2013-01-13 14:05:00,
2013-01-13 09:10:00,37.0,33.2,29.84,West,270,0.0,0.0,86,0.00,,---,0.08,VWS V14.01,2013-01-13 14:10:00,
2013-01-13 09:15:00,37.0,33.2,29.85,WSW,248,0.0,0.0,86,0.00,,---,0.08,VWS V14.01,2013-01-13 14:15:00,
2013-01-13 09:20:00,37.2,33.4,29.85,West,270,0.0,0.0,86,0.00,,---,0.08,VWS V14.01,2013-01-13 14:20:00,
2013-01-13 09:25:00,37.0,33.2,29.85,WSW,248,0.4,0.4,86,0.00,,---,0.08,VWS V14.01,2013-01-13 14:25:00,
2013-01-13 09:30:00,37.2,33.4,29.85,WNW,292,0.0,0.0,86,0.00,,---,0.08,VWS V14.01,2013-01-13 14:30:00,
2013-01-13 09:35:00,37.0,33.2,29.84,WSW,248,0.0,0.0,86,0.00,,---,0.08,VWS V14.01,2013-01-13 14:35:00,
2013-01-13 09:40:00,37.0,33.2,29.85,WSW,248,0.0,0.0,86,0.00,,---,0.08,VWS V14.01,2013-01-13 14:40:00,
2013-01-13 09:45:00,37.0,33.2,29.84,West,270,0.0,0.0,86,0.00,,---,0.08,VWS V14.01,2013-01-13 14:45:00,
2013-01-13 09:50:00,37.0,33.2,29.85,West,270,0.0,0.0,86,0.00,,---,0.08,VWS V14.01,2013-01-13 14:50:00,
2013-01-13 09:55:00,36.8,33.0,29.85,WNW,292,0.0,0.0,86,0.00,,---,0.08,VWS V14.01,2013-01-13 14:55:00,
2013-01-13 10:00:00,36.6,32.8,29.84,NNW,338,0.0,0.0,86,0.00,,---,0.08,VWS V14.01,2013-01-13 15:00:00,
2013-01-13 10:05:00,36.6,32.8,29.85,NNW,338,1.5,1.5,86,0.00,,---,0.08,VWS V14.01,2013-01-13 15:05:00,
2013-01-13 10:10:00,36.5,33.0,29.84,NW,315,3.1,3.1,87,0.00,,---,0.08,VWS V14.01,2013-01-13 15:10:00,
2013-01-13 10:15:00,36.3,32.8,29.85,NW,315,0.0,0.0,87,0.00,,---,0.08,VWS V14.01,2013-01-13 15:15:00,
2013-01-13 10:20:00,36.3,32.8,29.86,NW,315,0.0,0.0,87,0.00,,---,0.08,VWS V14.01,2013-01-13 15:20:00,
2013-01-13 10:25:00,36.3,32.8,29.86,West,270,0.0,0.0,87,0.00,,---,0.08,VWS V14.01,2013-01-13 15:25:00,
2013-01-13 10:30:00,36.3,32.8,29.86,NNW,338,2.9,2.9,87,0.00,,---,0.08,VWS V14.01,2013-01-13 15:30:00,
2013-01-13 10:35:00,36.1,32.6,29.87,West,270,0.8,0.8,87,0.00,,---,0.08,VWS V14.01,2013-01-13 15:35:00,
2013-01-13 10:40:00,36.3,32.8,29.88,NW,315,0.0,2.4,87,0.00,,---,0.08,VWS V14.01,2013-01-13 15:40:00,
2013-01-13 10:45:00,36.3,33.1,29.89,West,270,0.0,0.0,88,0.00,,---,0.08,VWS V14.01,2013-01-13 15:45:00,
2013-01-13 10:50:00,36.3,33.1,29.89,NW,315,0.0,0.0,88,0.00,,---,0.08,VWS V14.01,2013-01-13 15:50:00,
2013-01-13 10:55:00,36.3,33.1,29.89,SW,225,0.0,0.0,88,0.00,,---,0.08,VWS V14.01,2013-01-13 15:55:00,
2013-01-13 11:00:00,36.3,33.1,29.89,West,270,0.0,0.0,88,0.00,,---,0.08,VWS V14.01,2013-01-13 16:00:00,
2013-01-13 11:05:00,36.3,33.1,29.88,North,0,2.2,2.2,88,0.00,,---,0.08,VWS V14.01,2013-01-13 16:05:00,
2013-01-13 11:10:00,36.3,33.1,29.88,North,0,0.0,0.0,88,0.00,,---,0.08,VWS V14.01,2013-01-13 16:10:00,
2013-01-13 11:15:00,36.3,33.1,29.87,NNW,338,4.0,4.0,88,0.00,,---,0.08,VWS V14.01,2013-01-13 16:15:00,
2013-01-13 11:20:00,36.3,33.1,29.87,NW,315,0.0,0.0,88,0.00,,---,0.08,VWS V14.01,2013-01-13 16:20:00,
2013-01-13 11:25:00,36.5,33.3,29.87,West,270,0.0,0.0,88,0.00,,---,0.08,VWS V14.01,2013-01-13 16:25:00,
2013-01-13 11:30:00,36.5,33.3,29.88,West,270,0.0,0.0,88,0.00,,---,0.08,VWS V14.01,2013-01-13 16:30:00,
2013-01-13 11:35:00,36.5,33.3,29.89,WSW,248,0.0,0.0,88,0.00,,---,0.08,VWS V14.01,2013-01-13 16:35:00,
2013-01-13 11:40:00,36.5,33.3,29.88,WNW,292,0.8,0.8,88,0.00,,---,0.08,VWS V14.01,2013-01-13 16:40:00,
2013-01-13 11:45:00,36.5,33.3,29.88,North,0,0.0,0.0,88,0.00,,---,0.08,VWS V14.01,2013-01-13 16:45:00,
2013-01-13 11:50:00,36.5,33.3,29.87,NW,315,0.0,0.0,88,0.00,,---,0.08,VWS V14.01,2013-01-13 16:50:00,
2013-01-13 11:55:00,36.3,33.1,29.87,West,270,0.0,0.0,88,0.00,,---,0.08,VWS V14.01,2013-01-13 16:55:00,
2013-01-13 12:00:00,36.5,33.3,29.88,West,270,0.0,0.0,88,0.00,,---,0.08,VWS V14.01,2013-01-13 17:00:00,
2013-01-13 12:06:00,36.5,33.3,29.88,WSW,248,1.7,1.7,88,0.00,,---,0.08,VWS V14.01,2013-01-13 17:06:00,
2013-01-13 12:11:00,36.5,33.3,29.87,West,270,0.0,0.0,88,0.00,,---,0.08,VWS V14.01,2013-01-13 17:11:00,
2013-01-13 12:16:00,36.5,33.3,29.88,NW,315,0.0,0.0,88,0.00,,---,0.08,VWS V14.01,2013-01-13 17:16:00,
2013-01-13 12:21:00,36.3,33.1,29.87,WNW,292,0.0,1.1,88,0.00,,---,0.08,VWS V14.01,2013-01-13 17:21:00,
2013-01-13 12:26:00,36.3,33.1,29.86,North,0,0.4,0.4,88,0.00,,---,0.08,VWS V14.01,2013-01-13 17:26:00,
2013-01-13 12:31:00,36.3,33.1,29.85,NNW,338,0.0,0.0,88,0.00,,---,0.08,VWS V14.01,2013-01-13 17:31:00,
2013-01-13 12:36:00,36.3,33.1,29.84,West,270,0.0,0.0,88,0.00,,---,0.08,VWS V14.01,2013-01-13 17:36:00,
2013-01-13 12:41:00,36.5,33.3,29.80,NE,45,2.9,2.9,88,0.00,,---,0.08,VWS V14.01,2013-01-13 17:41:00,
2013-01-13 12:46:00,36.8,33.6,29.82,NNE,22,3.8,3.8,88,0.00,,---,0.08,VWS V14.01,2013-01-13 17:46:00,
2013-01-13 12:51:00,37.0,33.8,29.83,North,0,5.3,8.7,88,0.00,,---,0.08,VWS V14.01,2013-01-13 17:51:00,
2013-01-13 12:56:00,36.6,33.4,29.83,WNW,292,0.0,0.0,88,0.00,,---,0.08,VWS V14.01,2013-01-13 17:56:00,
2013-01-13 13:01:00,36.6,33.4,29.84,NW,315,0.4,0.4,88,0.00,,---,0.08,VWS V14.01,2013-01-13 18:01:00,
2013-01-13 13:06:00,36.6,33.4,29.86,West,270,0.0,0.0,88,0.00,,---,0.08,VWS V14.01,2013-01-13 18:06:00,
2013-01-13 13:11:00,36.6,33.4,29.86,WSW,248,1.7,1.7,88,0.00,,---,0.08,VWS V14.01,2013-01-13 18:11:00,
2013-01-13 13:16:00,36.6,33.4,29.87,West,270,0.0,0.0,88,0.00,,---,0.08,VWS V14.01,2013-01-13 18:16:00,
2013-01-13 13:21:00,36.6,33.4,29.87,North,0,0.0,6.7,88,0.00,,---,0.08,VWS V14.01,2013-01-13 18:21:00,
2013-01-13 13:26:00,36.6,33.4,29.88,West,270,0.0,0.0,88,0.00,,---,0.08,VWS V14.01,2013-01-13 18:26:00,
2013-01-13 13:31:00,36.6,33.4,29.87,WSW,248,0.0,0.0,88,0.00,,---,0.08,VWS V14.01,2013-01-13 18:31:00,
2013-01-13 13:36:00,36.6,33.4,29.87,West,270,0.0,1.1,88,0.00,,---,0.08,VWS V14.01,2013-01-13 18:36:00,
2013-01-13 13:41:00,36.5,33.3,29.86,NNW,338,2.4,2.4,88,0.00,,---,0.08,VWS V14.01,2013-01-13 18:41:00,
2013-01-13 13:46:00,36.6,33.4,29.85,West,270,0.0,0.0,88,0.00,,---,0.08,VWS V14.01,2013-01-13 18:46:00,
2013-01-13 13:51:00,36.6,33.4,29.86,West,270,0.0,1.3,88,0.00,,---,0.08,VWS V14.01,2013-01-13 18:51:00,
2013-01-13 13:56:00,36.6,33.4,29.86,NNW,338,0.0,0.0,88,0.00,,---,0.08,VWS V14.01,2013-01-13 18:56:00,
2013-01-13 14:01:00,36.5,33.3,29.86,NNE,22,0.0,0.0,88,0.00,,---,0.08,VWS V14.01,2013-01-13 19:01:00,
2013-01-13 14:06:00,36.6,33.4,29.85,WSW,248,0.0,0.0,88,0.00,,---,0.08,VWS V14.01,2013-01-13 19:06:00,
2013-01-13 14:11:00,36.6,33.4,29.85,North,0,0.8,0.8,88,0.00,,---,0.08,VWS V14.01,2013-01-13 19:11:00,
2013-01-13 14:16:00,36.6,33.4,29.85,North,0,0.0,0.0,88,0.00,,---,0.08,VWS V14.01,2013-01-13 19:16:00,
2013-01-13 14:21:00,36.6,33.4,29.85,NNW,338,0.6,5.3,88,0.00,,---,0.08,VWS V14.01,2013-01-13 19:21:00,
2013-01-13 14:26:00,36.6,33.4,29.85,NNW,338,0.0,0.0,88,0.00,,---,0.08,VWS V14.01,2013-01-13 19:26:00,
2013-01-13 14:31:00,36.5,33.3,29.84,NNW,338,0.0,0.0,88,0.00,,---,0.08,VWS V14.01,2013-01-13 19:31:00,
2013-01-13 14:36:00,36.3,32.8,29.84,WSW,248,0.0,0.0,87,0.00,,---,0.08,VWS V14.01,2013-01-13 19:36:00,
2013-01-13 14:41:00,36.1,32.9,29.83,NNW,338,1.5,1.5,88,0.00,,---,0.08,VWS V14.01,2013-01-13 19:41:00,
2013-01-13 14:46:00,36.3,33.1,29.83,NNW,338,0.6,4.0,88,0.00,,---,0.08,VWS V14.01,2013-01-13 19:46:00,
2013-01-13 14:51:00,36.3,33.1,29.84,NNW,338,0.0,2.9,88,0.00,,---,0.08,VWS V14.01,2013-01-13 19:51:00,
2013-01-13 14:56:00,36.3,33.1,29.85,SW,225,0.0,0.0,88,0.00,,---,0.08,VWS V14.01,2013-01-13 19:56:00,
2013-01-13 15:01:00,36.3,33.1,29.86,WNW,292,0.0,0.0,88,0.00,,---,0.08,VWS V14.01,2013-01-13 20:01:00,
2013-01-13 15:06:00,36.3,33.1,29.86,WNW,292,0.0,0.0,88,0.00,,---,0.08,VWS V14.01,2013-01-13 20:06:00,
2013-01-13 15:11:00,36.3,33.1,29.86,WNW,292,0.0,0.0,88,0.00,,---,0.08,VWS V14.01,2013-01-13 20:11:00,
2013-01-13 15:16:00,36.5,33.3,29.88,WSW,248,1.3,2.0,88,0.00,,---,0.08,VWS V14.01,2013-01-13 20:16:00,
2013-01-13 15:21:00,36.5,33.3,29.88,WSW,248,4.6,4.6,88,0.00,,---,0.08,VWS V14.01,2013-01-13 20:21:00,
2013-01-13 15:26:00,36.3,33.1,29.89,West,270,0.0,0.0,88,0.00,,---,0.08,VWS V14.01,2013-01-13 20:26:00,
2013-01-13 15:31:00,36.3,33.1,29.90,WSW,248,6.4,6.4,88,0.00,,---,0.08,VWS V14.01,2013-01-13 20:31:00,
2013-01-13 15:36:00,36.3,32.8,29.90,WSW,248,3.3,6.4,87,0.00,,---,0.08,VWS V14.01,2013-01-13 20:36:00,
2013-01-13 15:41:00,36.3,32.8,29.91,West,270,1.7,1.7,87,0.00,,---,0.08,VWS V14.01,2013-01-13 20:41:00,
2013-01-13 15:46:00,36.3,32.8,29.90,WSW,248,4.4,4.4,87,0.00,,---,0.08,VWS V14.01,2013-01-13 20:46:00,
2013-01-13 15:51:00,36.3,32.8,29.90,SW,225,0.0,4.0,87,0.00,,---,0.08,VWS V14.01,2013-01-13 20:51:00,
2013-01-13 15:56:00,36.3,32.8,29.89,WNW,292,0.0,0.0,87,0.00,,---,0.08,VWS V14.01,2013-01-13 20:56:00,
2013-01-13 16:01:00,36.3,32.8,29.89,WNW,292,0.0,0.0,87,0.00,,---,0.08,VWS V14.01,2013-01-13 21:01:00,
2013-01-13 16:06:00,36.1,32.6,29.89,NW,315,0.0,0.0,87,0.00,,---,0.08,VWS V14.01,2013-01-13 21:06:00,
2013-01-13 16:11:00,36.3,32.8,29.89,WSW,248,4.2,4.2,87,0.00,,---,0.08,VWS V14.01,2013-01-13 21:11:00,
2013-01-13 16:16:00,36.1,32.6,29.89,WNW,292,0.0,0.0,87,0.00,,---,0.08,VWS V14.01,2013-01-13 21:16:00,
2013-01-13 16:21:00,36.1,32.6,29.89,NW,315,0.0,0.0,87,0.00,,---,0.08,VWS V14.01,2013-01-13 21:21:00,
2013-01-13 16:26:00,36.1,32.6,29.89,WSW,248,0.0,0.0,87,0.00,,---,0.08,VWS V14.01,2013-01-13 21:26:00,
2013-01-13 16:31:00,36.1,32.6,29.88,West,270,0.0,0.0,87,0.00,,---,0.08,VWS V14.01,2013-01-13 21:31:00,
2013-01-13 16:36:00,36.1,32.6,29.89,SSW,202,3.5,3.5,87,0.00,,---,0.08,VWS V14.01,2013-01-13 21:36:00,
2013-01-13 16:41:00,36.1,32.6,29.90,SW,225,0.6,0.6,87,0.00,,---,0.08,VWS V14.01,2013-01-13 21:41:00,
2013-01-13 16:46:00,35.9,32.4,29.91,SSW,202,4.2,4.2,87,0.00,,---,0.08,VWS V14.01,2013-01-13 21:46:00,
2013-01-13 16:51:00,35.7,32.2,29.90,WSW,248,1.7,1.7,87,0.00,,---,0.08,VWS V14.01,2013-01-13 21:51:00,
2013-01-13 16:56:00,35.6,32.1,29.89,SSW,202,0.0,0.0,87,0.00,,---,0.08,VWS V14.01,2013-01-13 21:56:00,
2013-01-13 17:01:00,35.4,31.9,29.89,WSW,248,0.0,0.0,87,0.00,,---,0.08,VWS V14.01,2013-01-13 22:01:00,
2013-01-13 17:06:00,35.4,31.9,29.90,WSW,248,5.5,5.5,87,0.00,,---,0.08,VWS V14.01,2013-01-13 22:06:00,
2013-01-13 17:11:00,35.2,31.7,29.89,WSW,248,0.0,0.0,87,0.00,,---,0.08,VWS V14.01,2013-01-13 22:11:00,
2013-01-13 17:16:00,34.8,31.3,29.89,West,270,2.2,2.2,87,0.00,,---,0.08,VWS V14.01,2013-01-13 22:16:00,
2013-01-13 17:21:00,34.7,31.2,29.89,SW,225,1.5,1.5,87,0.00,,---,0.08,VWS V14.01,2013-01-13 22:21:00,
2013-01-13 17:26:00,34.5,31.0,29.87,WSW,248,0.0,0.0,87,0.00,,---,0.08,VWS V14.01,2013-01-13 22:26:00,
2013-01-13 17:31:00,34.3,30.8,29.86,West,270,0.0,0.0,87,0.00,,---,0.08,VWS V14.01,2013-01-13 22:31:00,
2013-01-13 17:36:00,33.9,30.5,29.86,West,270,0.0,0.0,87,0.00,,---,0.08,VWS V14.01,2013-01-13 22:36:00,
2013-01-13 17:41:00,33.8,30.4,29.87,SW,225,0.0,0.0,87,0.00,,---,0.08,VWS V14.01,2013-01-13 22:41:00,
2013-01-13 17:46:00,33.6,30.1,29.88,West,270,1.3,1.3,87,0.00,,---,0.08,VWS V14.01,2013-01-13 22:46:00,
2013-01-13 17:51:00,33.4,30.0,29.88,West,270,0.0,2.4,87,0.00,,---,0.08,VWS V14.01,2013-01-13 22:51:00,
2013-01-13 17:56:00,33.4,30.0,29.88,SW,225,1.3,1.3,87,0.00,,---,0.08,VWS V14.01,2013-01-13 22:56:00,
2013-01-13 18:01:00,33.2,29.8,29.88,WSW,248,0.0,0.0,87,0.00,,---,0.08,VWS V14.01,2013-01-13 23:01:00,
2013-01-13 18:06:00,33.2,29.8,29.88,WSW,248,0.0,0.0,87,0.00,,---,0.08,VWS V14.01,2013-01-13 23:06:00,
2013-01-13 18:11:00,33.2,29.8,29.88,West,270,0.0,0.0,87,0.00,,---,0.08,VWS V14.01,2013-01-13 23:11:00,
2013-01-13 18:16:00,33.0,29.6,29.89,SW,225,0.0,0.0,87,0.00,,---,0.08,VWS V14.01,2013-01-13 23:16:00,
2013-01-13 18:21:00,33.0,29.6,29.89,SW,225,0.0,2.9,87,0.00,,---,0.08,VWS V14.01,2013-01-13 23:21:00,
2013-01-13 18:26:00,32.9,29.5,29.89,West,270,0.0,0.0,87,0.00,,---,0.08,VWS V14.01,2013-01-13 23:26:00,
2013-01-13 18:31:00,32.9,29.5,29.90,WSW,248,2.6,2.6,87,0.00,,---,0.08,VWS V14.01,2013-01-13 23:31:00,
2013-01-13 18:36:00,32.7,29.3,29.90,SSW,202,2.0,2.0,87,0.00,,---,0.08,VWS V14.01,2013-01-13 23:36:00,
2013-01-13 18:41:00,32.7,29.3,29.89,South,180,0.0,0.0,87,0.00,,---,0.08,VWS V14.01,2013-01-13 23:41:00,
2013-01-13 18:46:00,32.7,29.3,29.88,SSW,202,2.9,2.9,87,0.00,,---,0.08,VWS V14.01,2013-01-13 23:46:00,
2013-01-13 18:51:00,32.7,29.3,29.89,West,270,0.0,1.3,87,0.00,,---,0.08,VWS V14.01,2013-01-13 23:51:00,
2013-01-13 18:56:00,32.7,29.3,29.89,West,270,0.0,0.0,87,0.00,,---,0.08,VWS V14.01,2013-01-13 23:56:00,
2013-01-13 19:01:00,32.7,29.3,29.88,West,270,0.0,0.0,87,0.00,,---,0.08,VWS V14.01,2013-01-14 00:01:00,
2013-01-13 19:06:00,32.7,29.3,29.89,West,270,0.0,0.0,87,0.00,,---,0.08,VWS V14.01,2013-01-14 00:06:00,
2013-01-13 19:11:00,32.5,29.4,29.89,WSW,248,0.0,0.0,88,0.00,,---,0.08,VWS V14.01,2013-01-14 00:11:00,
2013-01-13 19:16:00,32.5,29.4,29.89,SW,225,0.0,0.0,88,0.00,,---,0.08,VWS V14.01,2013-01-14 00:16:00,
2013-01-13 19:21:00,32.5,29.4,29.89,SW,225,0.0,0.0,88,0.00,,---,0.08,VWS V14.01,2013-01-14 00:21:00,
2013-01-13 19:26:00,32.5,29.4,29.90,WSW,248,0.0,0.0,88,0.00,,---,0.08,VWS V14.01,2013-01-14 00:26:00,
2013-01-13 19:31:00,32.5,29.4,29.91,West,270,0.0,0.0,88,0.00,,---,0.08,VWS V14.01,2013-01-14 00:31:00,
2013-01-13 19:36:00,32.5,29.4,29.90,SSW,202,8.7,8.7,88,0.00,,---,0.08,VWS V14.01,2013-01-14 00:36:00,
2013-01-13 19:41:00,32.5,29.4,29.89,West,270,1.1,1.1,88,0.00,,---,0.08,VWS V14.01,2013-01-14 00:41:00,
2013-01-13 19:46:00,32.3,29.1,29.91,West,270,8.0,8.0,88,0.00,,---,0.08,VWS V14.01,2013-01-14 00:46:00,
2013-01-13 19:52:00,32.3,29.1,29.92,West,270,0.0,0.0,88,0.00,,---,0.08,VWS V14.01,2013-01-14 00:52:00,
2013-01-13 19:57:00,32.3,29.1,29.92,WSW,248,2.9,5.5,88,0.00,,---,0.08,VWS V14.01,2013-01-14 00:57:00,
2013-01-13 20:02:00,32.1,29.0,29.92,WNW,292,4.2,8.0,88,0.00,,---,0.08,VWS V14.01,2013-01-14 01:02:00,
2013-01-13 20:07:00,32.1,29.0,29.92,WSW,248,8.0,8.0,88,0.00,,---,0.08,VWS V14.01,2013-01-14 01:07:00,
2013-01-13 20:12:00,32.1,29.0,29.92,WSW,248,7.8,7.8,88,0.00,,---,0.08,VWS V14.01,2013-01-14 01:12:00,
2013-01-13 20:17:00,32.0,28.9,29.92,WSW,248,4.4,6.2,88,0.00,,---,0.08,VWS V14.01,2013-01-14 01:17:00,
2013-01-13 20:22:00,31.8,28.7,29.93,WSW,248,4.4,4.4,88,0.00,,---,0.08,VWS V14.01,2013-01-14 01:22:00,
2013-01-13 20:27:00,31.8,28.7,29.93,West,270,6.0,6.0,88,0.00,,---,0.08,VWS V14.01,2013-01-14 01:27:00,
2013-01-13 20:32:00,31.8,28.7,29.93,WNW,292,3.1,3.1,88,0.00,,---,0.08,VWS V14.01,2013-01-14 01:32:00,
2013-01-13 20:37:00,31.8,28.7,29.93,West,270,11.8,11.8,88,0.00,,---,0.08,VWS V14.01,2013-01-14 01:37:00,
2013-01-13 20:42:00,31.6,28.5,29.93,West,270,5.3,5.3,88,0.00,,---,0.08,VWS V14.01,2013-01-14 01:42:00,
2013-01-13 20:47:00,31.6,28.5,29.93,South,180,4.6,4.6,88,0.00,,---,0.08,VWS V14.01,2013-01-14 01:47:00,
2013-01-13 20:52:00,31.6,28.5,29.93,WSW,248,2.0,2.0,88,0.00,,---,0.08,VWS V14.01,2013-01-14 01:52:00,
2013-01-13 20:57:00,31.6,28.5,29.93,WSW,248,3.3,3.3,88,0.00,,---,0.08,VWS V14.01,2013-01-14 01:57:00,
2013-01-13 21:02:00,31.2,28.1,29.93,West,270,8.2,8.2,88,0.00,,---,0.08,VWS V14.01,2013-01-14 02:02:00,
2013-01-13 21:07:00,31.2,28.1,29.93,WSW,248,7.6,7.6,88,0.00,,---,0.08,VWS V14.01,2013-01-14 02:07:00,
2013-01-13 21:12:00,31.2,28.1,29.94,West,270,3.8,3.8,88,0.00,,---,0.08,VWS V14.01,2013-01-14 02:12:00,
2013-01-13 21:17:00,31.1,28.0,29.94,NNW,338,5.5,5.5,88,0.00,,---,0.08,VWS V14.01,2013-01-14 02:17:00,
2013-01-13 21:22:00,31.1,28.0,29.94,West,270,7.8,7.8,88,0.00,,---,0.08,VWS V14.01,2013-01-14 02:22:00,
2013-01-13 21:27:00,30.9,27.5,29.94,West,270,10.5,10.5,87,0.00,,---,0.08,VWS V14.01,2013-01-14 02:27:00,
2013-01-13 21:32:00,30.9,27.5,29.94,SW,225,9.8,9.8,87,0.00,,---,0.08,VWS V14.01,2013-01-14 02:32:00,
2013-01-13 21:37:00,30.7,27.3,29.95,WSW,248,6.9,6.9,87,0.00,,---,0.08,VWS V14.01,2013-01-14 02:37:00,
2013-01-13 21:42:00,30.5,26.8,29.95,West,270,6.9,6.9,86,0.00,,---,0.08,VWS V14.01,2013-01-14 02:42:00,
2013-01-13 21:47:00,30.3,26.6,29.94,SW,225,7.1,7.1,86,0.00,,---,0.08,VWS V14.01,2013-01-14 02:47:00,
2013-01-13 21:52:00,30.3,26.6,29.95,West,270,7.8,7.8,86,0.00,,---,0.08,VWS V14.01,2013-01-14 02:52:00,
2013-01-13 21:57:00,30.0,26.3,29.95,West,270,5.8,7.8,86,0.00,,---,0.08,VWS V14.01,2013-01-14 02:57:00,
2013-01-13 22:02:00,30.0,26.0,29.95,West,270,6.2,7.8,85,0.00,,---,0.08,VWS V14.01,2013-01-14 03:02:00,
2013-01-13 22:07:00,30.0,26.0,29.95,WSW,248,7.8,7.8,85,0.00,,---,0.08,VWS V14.01,2013-01-14 03:07:00,
2013-01-13 22:12:00,29.8,25.9,29.95,WSW,248,4.9,6.7,85,0.00,,---,0.08,VWS V14.01,2013-01-14 03:12:00,
2013-01-13 22:17:00,29.6,25.4,29.95,SSW,202,2.4,2.4,84,0.00,,---,0.08,VWS V14.01,2013-01-14 03:17:00,
2013-01-13 22:22:00,29.4,25.2,29.95,WSW,248,7.3,7.3,84,0.00,,---,0.08,VWS V14.01,2013-01-14 03:22:00,
2013-01-13 22:27:00,29.3,25.1,29.95,SSW,202,7.1,7.1,84,0.00,,---,0.08,VWS V14.01,2013-01-14 03:27:00,
2013-01-13 22:32:00,29.1,24.9,29.96,WSW,248,6.7,6.7,84,0.00,,---,0.08,VWS V14.01,2013-01-14 03:32:00,
2013-01-13 22:37:00,28.9,24.4,29.96,West,270,8.0,8.0,83,0.00,,---,0.08,VWS V14.01,2013-01-14 03:37:00,
2013-01-13 22:42:00,28.7,24.2,29.96,West,270,4.9,7.6,83,0.00,,---,0.08,VWS V14.01,2013-01-14 03:42:00,
2013-01-13 22:47:00,28.5,24.0,29.96,West,270,8.7,8.7,83,0.00,,---,0.08,VWS V14.01,2013-01-14 03:47:00,
2013-01-13 22:52:00,28.2,23.7,29.97,West,270,8.7,8.7,83,0.00,,---,0.08,VWS V14.01,2013-01-14 03:52:00,
2013-01-13 22:57:00,28.0,23.2,29.96,WSW,248,7.1,9.8,82,0.00,,---,0.08,VWS V14.01,2013-01-14 03:57:00,
2013-01-13 23:02:00,28.0,23.2,29.96,West,270,8.7,8.7,82,0.00,,---,0.08,VWS V14.01,2013-01-14 04:02:00,
2013-01-13 23:07:00,27.6,22.8,29.97,West,270,6.4,6.4,82,0.00,,---,0.08,VWS V14.01,2013-01-14 04:07:00,
2013-01-13 23:12:00,27.6,22.8,29.97,WSW,248,0.8,8.7,82,0.00,,---,0.08,VWS V14.01,2013-01-14 04:12:00,
2013-01-13 23:17:00,27.5,22.7,29.97,SW,225,7.3,7.3,82,0.00,,---,0.08,VWS V14.01,2013-01-14 04:17:00,
2013-01-13 23:22:00,27.5,22.7,29.98,SW,225,3.3,3.3,82,0.00,,---,0.08,VWS V14.01,2013-01-14 04:22:00,
2013-01-13 23:27:00,27.3,22.5,29.99,West,270,9.1,9.1,82,0.00,,---,0.08,VWS V14.01,2013-01-14 04:27:00,
2013-01-13 23:32:00,27.1,22.4,29.99,WSW,248,4.9,4.9,82,0.00,,---,0.08,VWS V14.01,2013-01-14 04:32:00,
2013-01-13 23:37:00,27.1,22.4,29.98,West,270,5.1,5.1,82,0.00,,---,0.08,VWS V14.01,2013-01-14 04:37:00,
2013-01-13 23:42:00,27.1,22.4,29.99,SSW,202,8.0,8.7,82,0.00,,---,0.08,VWS V14.01,2013-01-14 04:42:00,
2013-01-13 23:47:00,26.9,21.9,29.99,SW,225,12.0,12.0,81,0.00,,---,0.08,VWS V14.01,2013-01-14 04:47:00,
2013-01-13 23:52:00,26.7,21.7,30.00,West,270,9.6,9.6,81,0.00,,---,0.08,VWS V14.01,2013-01-14 04:52:00,
2013-01-13 23:57:00,26.4,21.1,30.00,West,270,6.7,7.1,80,0.00,,---,0.08,VWS V14.01,2013-01-14 04:57:00,